Time;durP1;ratioP1;P1;durP2;ratioP2;P2;SDS_P1;SDS_P2;PMS_P1;PMS_P2;Temp;Humidity;BMP_temperature;BMP_pressure;BME280_temperature;BME280_humidity;BME280_pressure;Samples;Min_cycle;Max_cycle;Signal;HPM_P1;HPM_P2
2023/06/07 00:00:15;;;;;;;6.40;3.30;;;;;;;-144.73;39.61;84153.70;110535;1269;22283;-70
2023/06/07 00:03:00;;;;;;;5.30;2.80;;;;;;;-144.73;39.47;84140.67;110286;1270;22986;-70
2023/06/07 00:05:47;;;;;;;14.00;3.50;;;;;;;-144.73;39.36;84142.64;110357;1258;22348;-69
2023/06/07 00:08:34;;;;;;;7.50;3.20;;;;;;;-144.73;39.10;84155.69;110346;1270;22131;-68
2023/06/07 00:11:21;;;;;;;5.60;3.10;;;;;;;-144.73;39.37;84143.04;110318;1271;22957;-67
2023/06/07 00:14:09;;;;;;;6.70;2.60;;;;;;;-144.73;39.36;84126.44;110289;1270;22292;-67
2023/06/07 00:16:55;;;;;;;6.40;2.70;;;;;;;-144.73;39.02;84110.63;110306;1260;22145;-66
2023/06/07 00:19:41;;;;;;;5.50;3.10;;;;;;;-144.73;38.92;84082.55;110277;1274;22965;-66
2023/06/07 00:22:29;;;;;;;6.30;3.20;;;;;;;-144.73;38.95;84080.59;110418;1270;22915;-66
2023/06/07 00:25:15;;;;;;;5.90;2.90;;;;;;;-144.73;38.63;84060.83;110376;1269;22123;-67
2023/06/07 00:28:01;;;;;;;5.80;2.60;;;;;;;-144.73;38.45;84054.10;110315;1269;22140;-67
2023/06/07 00:30:47;;;;;;;8.50;3.20;;;;;;;-144.73;38.42;84062.02;110433;1269;23149;-66
2023/06/07 00:33:34;;;;;;;5.80;3.00;;;;;;;-144.73;38.70;84079.80;110366;1273;22138;-68
2023/06/07 00:36:20;;;;;;;6.10;3.00;;;;;;;-144.73;38.76;84086.12;110534;1276;22153;-70
2023/06/07 00:39:05;;;;;;;6.90;2.70;;;;;;;-144.73;38.69;84075.45;110375;1269;22300;-70
2023/06/07 00:41:52;;;;;;;6.10;2.90;;;;;;;-144.73;38.45;84070.70;110269;1266;22126;-68
2023/06/07 00:44:38;;;;;;;5.50;2.60;;;;;;;-144.73;38.47;84051.73;110399;1270;22118;-68
2023/06/07 00:47:25;;;;;;;14.00;2.80;;;;;;;-144.73;38.35;84061.22;110467;1269;22834;-71
2023/06/07 00:50:12;;;;;;;6.20;2.80;;;;;;;-144.73;38.28;84055.29;110261;1275;24585;-68
2023/06/07 00:52:58;;;;;;;5.80;2.90;;;;;;;-144.73;38.16;84040.27;110353;1270;22340;-68
2023/06/07 00:55:45;;;;;;;9.50;2.90;;;;;;;-144.73;38.00;84053.31;110304;1270;22140;-69
2023/06/07 00:58:37;;;;;;;7.90;3.00;;;;;;;-144.73;37.77;84027.63;110242;1270;23050;-69
2023/06/07 01:01:25;;;;;;;6.90;3.10;;;;;;;-144.73;37.78;84018.92;110297;1277;22080;-69
2023/06/07 01:04:11;;;;;;;8.40;3.20;;;;;;;-144.73;37.65;84003.52;110307;1277;22147;-69
2023/06/07 01:06:58;;;;;;;6.20;3.00;;;;;;;-144.73;37.56;84001.14;110282;1278;22073;-69
2023/06/07 01:09:44;;;;;;;7.20;3.10;;;;;;;-144.73;37.53;83996.40;110281;1277;22909;-69
2023/06/07 01:12:30;;;;;;;8.00;3.20;;;;;;;-144.73;37.43;83997.58;110300;1277;22251;-68
2023/06/07 01:15:19;;;;;;;7.30;2.80;;;;;;;-144.73;37.30;83979.80;110302;1271;22840;-69
2023/06/07 01:18:09;;;;;;;6.30;2.90;;;;;;;-144.73;37.20;83992.05;110333;1276;22908;-69
2023/06/07 01:20:57;;;;;;;5.90;3.00;;;;;;;-144.73;37.01;83982.17;110429;1276;22262;-66
2023/06/07 01:23:43;;;;;;;7.70;3.00;;;;;;;-144.73;37.13;83974.27;110417;1276;22122;-67
2023/06/07 01:26:30;;;;;;;7.80;2.90;;;;;;;-144.73;37.07;83965.57;110442;1276;22186;-66
2023/06/07 01:29:17;;;;;;;5.00;3.00;;;;;;;-144.73;36.87;83951.73;110433;1276;22907;-66
2023/06/07 01:32:06;;;;;;;8.60;2.90;;;;;;;-144.73;36.71;83924.46;110441;1276;22143;-66
2023/06/07 01:34:54;;;;;;;7.40;2.90;;;;;;;-144.73;36.67;83927.63;110448;1276;22128;-66
2023/06/07 01:37:42;;;;;;;5.50;2.90;;;;;;;-144.73;36.42;83923.28;110424;1276;22241;-66
2023/06/07 01:40:29;;;;;;;6.60;2.90;;;;;;;-144.73;36.55;83907.88;110426;1276;22115;-66
2023/06/07 01:43:16;;;;;;;6.00;3.10;;;;;;;-144.73;36.48;83931.98;110213;1276;22172;-67
2023/06/07 01:46:04;;;;;;;5.90;2.90;;;;;;;-144.73;36.49;83960.83;110388;1276;22793;-66
2023/06/07 01:48:51;;;;;;;7.50;3.10;;;;;;;-144.73;36.75;83953.71;110405;1276;22859;-67
2023/06/07 01:51:37;;;;;;;7.40;2.80;;;;;;;-144.73;37.02;83967.95;110333;1276;23148;-66
2023/06/07 01:54:24;;;;;;;9.80;3.40;;;;;;;-144.73;37.27;84010.23;110305;1271;22831;-66
2023/06/07 01:57:21;;;;;;;10.20;3.20;;;;;;;-144.73;37.82;84027.23;110399;1269;22285;-66
2023/06/07 02:00:26;;;;;;;6.90;3.40;;;;;;;-144.73;38.11;84080.19;110221;1276;22340;-67
2023/06/07 02:03:33;;;;;;;5.40;3.20;;;;;;;-144.73;38.45;84093.63;110308;1270;22894;-66
2023/06/07 02:06:30;;;;;;;8.50;2.70;;;;;;;-144.73;38.81;84120.50;110366;1270;22121;-68
2023/06/07 02:09:19;;;;;;;7.80;2.90;;;;;;;-144.73;38.93;84152.52;110410;1271;22465;-67
2023/06/07 02:12:07;;;;;;;5.90;3.10;;;;;;;-144.73;39.12;84156.08;110359;1269;22841;-70
2023/06/07 02:14:55;;;;;;;6.50;3.10;;;;;;;-144.73;39.30;84157.27;110220;1269;22131;-68
2023/06/07 02:17:49;;;;;;;7.20;3.70;;;;;;;-144.73;39.33;84166.75;110291;1271;22765;-70
2023/06/07 02:20:35;;;;;;;7.60;3.10;;;;;;;-144.73;39.52;84168.33;110368;1270;22114;-69
2023/06/07 02:23:21;;;;;;;8.80;3.40;;;;;;;-144.73;39.60;84167.94;110330;1276;22299;-69
2023/06/07 02:26:07;;;;;;;7.20;3.60;;;;;;;-144.73;39.79;84183.35;110214;1271;22136;-67
2023/06/07 02:28:54;;;;;;;6.40;3.40;;;;;;;-144.73;40.12;84177.81;110307;1276;22318;-68
2023/06/07 02:31:40;;;;;;;5.90;3.10;;;;;;;-144.73;40.19;84219.32;110425;1270;22119;-68
2023/06/07 02:34:27;;;;;;;10.30;3.60;;;;;;;-144.73;40.36;84215.77;110344;1270;22475;-69
2023/06/07 02:37:13;;;;;;;6.50;3.40;;;;;;;-144.73;40.62;84220.50;110372;1271;22209;-71
2023/06/07 02:39:59;;;;;;;5.90;2.90;;;;;;;-144.73;40.53;84219.33;110303;1270;22341;-69
2023/06/07 02:42:46;;;;;;;6.70;3.10;;;;;;;-144.73;40.40;84229.60;110325;1276;22319;-67
2023/06/07 02:45:32;;;;;;;4.40;2.60;;;;;;;-144.73;40.46;84217.73;110426;1270;23024;-68
2023/06/07 02:48:18;;;;;;;6.20;3.10;;;;;;;-144.73;40.83;84221.30;110327;1276;22307;-66
2023/06/07 02:51:05;;;;;;;7.30;3.50;;;;;;;-144.73;40.71;84205.09;110248;1271;22163;-67
2023/06/07 02:53:51;;;;;;;7.60;3.90;;;;;;;-144.73;40.75;84199.55;110355;1276;22326;-66
2023/06/07 02:56:39;;;;;;;8.20;3.40;;;;;;;-144.73;40.64;84212.59;110203;1270;22132;-67
2023/06/07 02:59:26;;;;;;;6.40;3.40;;;;;;;-144.73;40.72;84214.97;110202;1278;22184;-66
2023/06/07 03:02:14;;;;;;;9.10;3.70;;;;;;;-144.73;40.78;84213.39;110127;1277;22136;-66
2023/06/07 03:05:02;;;;;;;6.20;3.60;;;;;;;-144.73;40.77;84198.36;110193;1278;22847;-66
2023/06/07 03:07:50;;;;;;;6.90;3.60;;;;;;;-144.73;40.89;84188.88;110411;1275;22095;-66
2023/06/07 03:10:36;;;;;;;7.70;4.00;;;;;;;-144.73;40.96;84204.70;110538;1275;22991;-65
2023/06/07 03:13:23;;;;;;;6.80;4.40;;;;;;;-144.73;41.14;84200.73;110474;1275;22095;-66
2023/06/07 03:16:10;;;;;;;7.60;3.90;;;;;;;-144.73;41.21;84216.16;110491;1255;22129;-66
2023/06/07 03:19:06;;;;;;;8.30;3.80;;;;;;;-144.73;41.38;84221.29;110480;1275;22132;-66
2023/06/07 03:21:53;;;;;;;10.90;3.60;;;;;;;-144.73;41.45;84231.17;110424;1275;22121;-66
2023/06/07 03:24:40;;;;;;;7.60;3.50;;;;;;;-144.73;41.59;84229.20;110411;1275;22216;-67
2023/06/07 03:27:27;;;;;;;9.20;5.00;;;;;;;-144.73;41.48;84237.11;110504;1259;22823;-65
2023/06/07 03:30:17;;;;;;;6.60;3.20;;;;;;;-144.73;41.47;84232.75;110386;1275;22211;-66
2023/06/07 03:33:04;;;;;;;7.60;3.70;;;;;;;-144.73;41.55;84210.62;110485;1275;22137;-69
2023/06/07 03:35:51;;;;;;;7.20;3.80;;;;;;;-144.73;41.36;84153.70;110428;1275;22082;-69
2023/06/07 03:38:43;;;;;;;;;;;;;;;-144.73;41.01;84137.90;110444;1275;22224;-68
2023/06/07 03:41:29;;;;;;;6.30;3.90;;;;;;;-144.73;41.08;84120.52;110398;1269;22119;-69
2023/06/07 03:44:17;;;;;;;8.90;4.10;;;;;;;-144.73;41.14;84118.14;110392;1269;22135;-67
2023/06/07 03:47:04;;;;;;;6.50;3.90;;;;;;;-144.73;41.46;84116.95;110374;1270;22112;-69
2023/06/07 03:49:50;;;;;;;10.50;4.90;;;;;;;-144.73;41.84;84150.55;110307;1269;22132;-68
2023/06/07 03:52:37;;;;;;;14.00;4.80;;;;;;;-144.73;42.27;84190.07;110283;1276;22178;-68
2023/06/07 03:55:22;;;;;;;10.30;4.00;;;;;;;-144.73;42.51;84206.27;110319;1269;22835;-69
2023/06/07 03:58:09;;;;;;;6.90;3.80;;;;;;;-144.73;42.54;84231.58;110342;1270;22281;-69
2023/06/07 04:00:56;;;;;;;9.80;3.90;;;;;;;-144.73;42.56;84220.51;110269;1271;22146;-71
2023/06/07 04:03:42;;;;;;;9.70;3.90;;;;;;;-144.73;42.54;84229.20;110349;1260;22218;-71
2023/06/07 04:06:28;;;;;;;10.50;3.90;;;;;;;-144.73;42.64;84220.51;110562;1257;22164;-70
2023/06/07 04:09:18;;;;;;;7.00;3.80;;;;;;;-144.73;42.67;84223.67;110552;1269;22092;-69
2023/06/07 04:12:05;;;;;;;7.90;4.20;;;;;;;-144.73;42.75;84220.90;110403;1270;22351;-70
2023/06/07 04:14:51;;;;;;;7.40;3.70;;;;;;;-144.73;42.54;84184.14;110190;1274;22109;-70
2023/06/07 04:17:37;;;;;;;7.30;3.60;;;;;;;-144.73;42.27;84156.48;110281;1271;22344;-71
2023/06/07 04:20:24;;;;;;;7.70;4.30;;;;;;;-144.73;42.33;84146.98;110174;1276;23120;-67
2023/06/07 04:23:10;;;;;;;9.10;4.30;;;;;;;-144.73;42.30;84137.11;110209;1271;22796;-68
2023/06/07 04:25:58;;;;;;;8.50;4.60;;;;;;;-144.73;42.10;84111.80;110350;1270;23043;-68
2023/06/07 04:28:45;;;;;;;8.30;4.00;;;;;;;-144.73;42.13;84118.92;110354;1270;22348;-68
2023/06/07 04:31:33;;;;;;;9.90;4.30;;;;;;;-144.73;42.25;84131.58;110161;1262;22486;-67
2023/06/07 04:34:22;;;;;;;7.40;4.10;;;;;;;-144.73;42.36;84133.16;110177;1270;22150;-69
2023/06/07 04:37:09;;;;;;;9.70;4.50;;;;;;;-144.73;42.20;84116.55;110276;1270;22081;-68
2023/06/07 04:39:55;;;;;;;9.60;4.10;;;;;;;-144.73;42.10;84101.14;110291;1270;22320;-69
2023/06/07 04:42:46;;;;;;;9.60;4.00;;;;;;;-144.73;41.21;84101.54;110291;1277;22793;-68
2023/06/07 04:45:34;;;;;;;7.00;3.50;;;;;;;-144.73;41.28;84092.05;110169;1277;22116;-68
2023/06/07 04:48:22;;;;;;;10.90;4.40;;;;;;;-144.73;41.34;84028.81;110155;1277;22111;-66
2023/06/07 04:51:10;;;;;;;9.80;4.70;;;;;;;-144.73;41.25;84014.98;110200;1278;22129;-66
2023/06/07 04:54:01;;;;;;;12.40;4.20;;;;;;;-144.73;41.25;84000.35;110122;1278;22214;-66
2023/06/07 04:56:48;;;;;;;9.20;3.80;;;;;;;-144.73;41.08;83990.86;110141;1278;22105;-68
2023/06/07 04:59:41;;;;;;;9.30;4.20;;;;;;;-144.73;41.05;84003.11;110225;1278;22324;-67
2023/06/07 05:02:29;;;;;;;8.50;3.70;;;;;;;-144.73;41.16;83996.79;110270;1277;22777;-68
2023/06/07 05:05:15;;;;;;;9.90;4.50;;;;;;;-144.73;40.76;84010.63;110357;1277;22069;-68
2023/06/07 05:08:02;;;;;;;6.10;3.50;;;;;;;-144.73;40.52;83984.55;110205;1277;22127;-66
2023/06/07 05:10:48;;;;;;;7.70;4.10;;;;;;;-144.73;40.57;83981.38;110408;1277;22119;-67
2023/06/07 05:13:34;;;;;;;10.00;4.60;;;;;;;-144.73;40.56;83981.77;110410;1277;22148;-67
2023/06/07 05:16:21;;;;;;;6.70;4.10;;;;;;;-144.73;40.49;83971.50;110216;1277;22158;-67
2023/06/07 05:19:07;;;;;;;7.00;3.80;;;;;;;-144.73;40.29;83956.09;110338;1277;22845;-66
2023/06/07 05:21:54;;;;;;;7.70;3.70;;;;;;;-144.73;39.78;83963.98;110010;1280;22852;-65
2023/06/07 05:24:41;;;;;;;7.20;3.40;;;;;;;-144.73;39.74;83947.39;110096;1273;23215;-69
2023/06/07 05:27:27;;;;;;;8.10;4.50;;;;;;;-144.73;39.79;83958.06;110175;1266;22846;-69
2023/06/07 05:30:13;;;;;;;10.50;4.40;;;;;;;-144.73;39.73;83958.45;110024;1280;22358;-69
2023/06/07 05:32:59;;;;;;;12.50;3.90;;;;;;;-144.73;39.79;83969.52;109988;1273;22846;-67
2023/06/07 05:35:46;;;;;;;8.50;3.80;;;;;;;-144.73;39.62;83969.92;110032;1273;22969;-67
2023/06/07 05:38:33;;;;;;;10.00;3.80;;;;;;;-144.73;39.38;83956.88;109974;1277;22868;-68
2023/06/07 05:41:19;;;;;;;7.80;3.60;;;;;;;-144.73;39.40;83936.72;110003;1277;22342;-68
2023/06/07 05:44:05;;;;;;;10.40;3.70;;;;;;;-144.73;39.38;83931.58;109996;1279;22197;-66
2023/06/07 05:46:52;;;;;;;8.10;3.90;;;;;;;-144.73;38.99;83917.75;109987;1274;22992;-67
2023/06/07 05:49:38;;;;;;;8.20;3.50;;;;;;;-144.73;38.95;83924.07;110053;1274;22178;-65
2023/06/07 05:52:24;;;;;;;11.30;3.80;;;;;;;-144.73;39.03;83945.41;110031;1270;22350;-70
2023/06/07 05:55:10;;;;;;;8.70;3.30;;;;;;;-144.73;39.10;83942.65;110405;1270;22910;-66
2023/06/07 05:58:00;;;;;;;10.10;4.00;;;;;;;-144.73;39.39;83951.73;110338;1277;22127;-70
2023/06/07 06:00:47;;;;;;;10.10;3.80;;;;;;;-144.73;39.54;83956.48;110258;1271;23687;-69
2023/06/07 06:03:33;;;;;;;10.10;3.80;;;;;;;-144.73;39.27;83958.85;110280;1277;22910;-69
2023/06/07 06:06:19;;;;;;;8.40;4.10;;;;;;;-144.73;39.44;83965.58;110338;1271;22850;-69
2023/06/07 06:09:05;;;;;;;8.10;3.20;;;;;;;-144.73;39.16;83951.74;110245;1277;22219;-68
2023/06/07 06:11:51;;;;;;;13.80;3.80;;;;;;;-144.73;39.03;83961.63;110106;1264;22312;-68
2023/06/07 06:14:38;;;;;;;8.40;3.10;;;;;;;-144.73;39.29;83973.88;110160;1262;22321;-68
2023/06/07 06:17:24;;;;;;;8.00;3.80;;;;;;;-144.73;39.54;83986.52;110276;1267;22329;-68
2023/06/07 06:20:16;;;;;;;7.60;4.00;;;;;;;-144.73;39.50;83973.08;110240;1270;22166;-68
2023/06/07 06:23:03;;;;;;;10.00;4.30;;;;;;;-144.73;39.47;83989.28;110223;1262;22176;-67
2023/06/07 06:25:50;;;;;;;7.30;3.60;;;;;;;-144.73;39.71;83988.10;110125;1263;22337;-67
2023/06/07 06:28:36;;;;;;;10.00;3.50;;;;;;;-144.73;39.81;83982.96;110294;1262;22224;-67
2023/06/07 06:31:22;;;;;;;9.10;3.60;;;;;;;-144.73;39.86;83974.27;110369;1261;22361;-64
2023/06/07 06:34:08;;;;;;;12.40;4.20;;;;;;;-144.73;40.06;83952.92;110263;1265;22329;-68
2023/06/07 06:36:54;;;;;;;6.50;3.60;;;;;;;-144.73;39.94;83968.34;110283;1270;22142;-63
2023/06/07 06:39:40;;;;;;;7.30;4.20;;;;;;;-144.73;39.78;83959.25;110278;1271;22388;-64
2023/06/07 06:42:26;;;;;;;6.30;3.50;;;;;;;-144.73;39.60;83940.27;110356;1269;22308;-58
2023/06/07 06:45:31;;;;;;;7.10;3.60;;;;;;;-144.73;39.45;83918.54;110361;1263;22324;-61
2023/06/07 06:48:18;;;;;;;8.60;4.30;;;;;;;-144.73;39.07;83911.82;110349;1271;22652;-62
2023/06/07 06:54:30;;;;;;;8.80;4.00;;;;;;;-144.73;40.07;84690.45;105044;1296;544962;-63
2023/06/07 06:57:16;;;;;;;9.90;3.60;;;;;;;-144.73;40.26;83845.02;106817;1264;26493;-68
2023/06/07 07:00:05;;;;;;;10.90;3.80;;;;;;;-144.73;40.48;83831.19;106340;1276;22526;-67
2023/06/07 07:02:52;;;;;;;7.60;3.80;;;;;;;-144.73;40.65;83813.02;106794;1280;24289;-66
2023/06/07 07:05:38;;;;;;;8.60;4.00;;;;;;;-144.73;40.48;83814.20;106563;1272;22518;-65
2023/06/07 07:08:25;;;;;;;7.90;3.40;;;;;;;-144.73;40.42;83794.83;106959;1271;138822;-70
2023/06/07 07:11:11;;;;;;;6.90;3.70;;;;;;;-144.73;40.70;83780.60;107352;1273;22526;-70
2023/06/07 07:13:57;;;;;;;8.00;4.20;;;;;;;-144.73;40.64;83799.98;106404;1273;22530;-69
2023/06/07 07:16:44;;;;;;;8.30;3.90;;;;;;;-144.73;40.42;83769.14;106955;1280;22899;-72
2023/06/07 07:19:30;;;;;;;10.30;4.20;;;;;;;-144.73;40.24;83763.61;106696;1273;24217;-71
2023/06/07 07:22:17;;;;;;;10.70;3.70;;;;;;;-144.73;39.98;83743.85;106953;1267;25328;-71
2023/06/07 07:25:04;;;;;;;8.70;3.50;;;;;;;-144.73;40.16;83757.29;106361;1278;22548;-66
2023/06/07 07:27:50;;;;;;;11.00;4.40;;;;;;;-144.73;40.20;83752.15;106967;1280;22559;-65
2023/06/07 07:30:36;;;;;;;8.00;4.00;;;;;;;-144.73;40.05;83739.90;106529;1270;22519;-68
2023/06/07 07:33:23;;;;;;;12.80;4.90;;;;;;;-144.73;39.91;83739.51;106709;1280;25242;-64
2023/06/07 07:36:09;;;;;;;12.40;4.70;;;;;;;-144.73;40.10;83707.48;106874;1261;22540;-64
2023/06/07 07:38:57;;;;;;;17.90;5.30;;;;;;;-144.73;40.06;83683.38;106839;1280;22527;-65
2023/06/07 07:41:44;;;;;;;14.20;4.50;;;;;;;-144.73;39.76;83683.77;107413;1279;22545;-64
2023/06/07 07:44:30;;;;;;;7.00;3.70;;;;;;;-144.73;39.99;83667.97;107230;1279;22522;-64
2023/06/07 07:47:17;;;;;;;12.90;4.20;;;;;;;-144.73;39.55;83628.45;107039;1270;22546;-65
2023/06/07 07:50:05;;;;;;;10.70;4.40;;;;;;;-144.73;39.56;83585.37;107646;1256;22526;-64
2023/06/07 07:52:53;;;;;;;10.10;4.60;;;;;;;-144.73;39.61;83591.30;108048;1263;22540;-68
2023/06/07 07:55:40;;;;;;;13.00;5.00;;;;;;;-144.73;39.71;83593.67;107177;1263;25469;-65
2023/06/07 07:58:26;;;;;;;11.30;6.20;;;;;;;-144.73;39.70;83560.08;107381;1266;22516;-65
2023/06/07 08:01:15;;;;;;;12.90;4.60;;;;;;;-144.73;39.70;83564.04;107565;1267;25216;-65
2023/06/07 08:04:01;;;;;;;12.00;4.40;;;;;;;-144.73;39.41;83517.01;107791;1267;24375;-69
2023/06/07 08:06:47;;;;;;;10.80;4.10;;;;;;;-144.73;38.68;83473.14;107692;1267;23896;-68
2023/06/07 08:09:33;;;;;;;9.00;4.00;;;;;;;-144.73;38.17;83424.13;107141;1264;22512;-66
2023/06/07 08:12:20;;;;;;;7.80;3.70;;;;;;;-144.73;37.65;83369.60;107805;1267;24212;-64
2023/06/07 08:15:08;;;;;;;6.90;3.70;;;;;;;-144.73;37.28;83328.10;107665;1269;22543;-64
2023/06/07 08:17:55;;;;;;;8.30;3.80;;;;;;;-144.73;36.80;83279.11;110520;1269;22315;-67
2023/06/07 08:20:41;;;;;;;6.80;3.70;;;;;;;-144.73;36.27;83239.98;110584;1257;22194;-67
2023/06/07 08:23:27;;;;;;;11.20;4.00;;;;;;;-144.73;35.86;83182.69;110532;1273;22146;-65
2023/06/07 08:26:14;;;;;;;8.60;3.50;;;;;;;-144.73;35.29;83142.78;110545;1257;22328;-67
2023/06/07 08:29:01;;;;;;;7.60;3.70;;;;;;;-144.73;35.17;83109.59;110521;1270;22190;-68
2023/06/07 08:31:48;;;;;;;9.60;3.90;;;;;;;-144.73;34.93;83044.39;110450;1269;22929;-67
2023/06/07 08:34:37;;;;;;;9.30;4.10;;;;;;;-144.73;34.67;82982.35;110542;1257;22396;-72
2023/06/07 08:37:24;;;;;;;8.90;3.70;;;;;;;-144.73;34.25;82910.44;110520;1267;23053;-68
2023/06/07 08:40:11;;;;;;;6.10;3.40;;;;;;;-144.73;34.04;82861.84;110497;1257;22221;-71
2023/06/07 08:42:57;;;;;;;9.20;3.70;;;;;;;-144.73;33.86;82866.97;110557;1257;22355;-70
2023/06/07 08:45:43;;;;;;;7.90;3.40;;;;;;;-144.73;33.98;82838.92;110584;1266;22424;-67
2023/06/07 08:48:33;;;;;;;6.80;3.60;;;;;;;-144.73;33.58;82669.02;110550;1256;22350;-73
2023/06/07 08:51:21;;;;;;;9.30;3.90;;;;;;;-144.73;33.09;82558.39;110526;1253;22331;-70
2023/06/07 08:54:10;;;;;;;7.10;3.50;;;;;;;-144.73;32.94;82524.41;110521;1269;22951;-65
2023/06/07 08:56:57;;;;;;;10.30;3.30;;;;;;;-144.73;32.58;82459.61;110474;1267;22375;-68
2023/06/07 08:59:45;;;;;;;8.40;3.80;;;;;;;-144.73;32.13;82367.56;110552;1257;22814;-65
2023/06/07 09:02:31;;;;;;;6.30;3.70;;;;;;;-144.73;31.61;82273.53;110548;1273;22312;-68
2023/06/07 09:05:18;;;;;;;10.70;3.50;;;;;;;-144.73;31.38;82207.95;110560;1273;22205;-68
2023/06/07 09:08:04;;;;;;;6.20;3.20;;;;;;;-144.73;30.90;82129.34;110500;1269;22322;-73
2023/06/07 09:10:50;;;;;;;8.40;3.20;;;;;;;-144.73;30.68;82067.70;110533;1269;22194;-67
2023/06/07 09:13:36;;;;;;;8.40;3.10;;;;;;;-144.73;30.52;82056.65;110569;1273;22309;-67
2023/06/07 09:16:23;;;;;;;5.80;3.20;;;;;;;-144.73;30.31;82041.63;110523;1257;22105;-65
2023/06/07 09:19:09;;;;;;;9.70;2.90;;;;;;;-144.73;29.96;81991.86;110543;1270;22230;-65
2023/06/07 09:21:57;;;;;;;10.20;3.40;;;;;;;-144.73;29.66;81980.41;110529;1270;22290;-67
2023/06/07 09:24:43;;;;;;;7.40;3.70;;;;;;;-144.73;29.46;81983.17;110519;1273;22306;-65
2023/06/07 09:27:32;;;;;;;8.50;3.60;;;;;;;-144.73;29.60;82013.59;110520;1269;23296;-69
2023/06/07 09:30:19;;;;;;;9.30;3.40;;;;;;;-144.73;29.64;82045.98;110481;1264;22389;-70
2023/06/07 09:33:06;;;;;;;6.50;2.90;;;;;;;-144.73;29.64;82070.08;110534;1273;22993;-65
2023/06/07 09:36:02;;;;;;;7.10;3.10;;;;;;;-144.73;29.69;82153.83;110554;1272;22897;-65
2023/06/07 09:38:48;;;;;;;9.00;3.30;;;;;;;-144.73;30.01;82237.98;110533;1272;22346;-65
2023/06/07 09:41:34;;;;;;;7.80;3.20;;;;;;;-144.73;29.86;82248.25;110530;1273;22186;-64
2023/06/07 09:44:28;;;;;;;13.00;4.00;;;;;;;-144.73;30.18;82300.00;110556;1272;22311;-67
2023/06/07 09:47:21;;;;;;;5.10;3.10;;;;;;;-144.73;30.08;82324.10;110557;1256;23132;-69
2023/06/07 09:50:14;;;;;;;5.00;3.10;;;;;;;-144.73;30.17;82325.68;110551;1269;22147;-67
2023/06/07 09:53:01;;;;;;;9.90;2.80;;;;;;;-144.73;30.07;82318.58;110568;1267;22160;-68
2023/06/07 09:55:47;;;;;;;8.00;3.00;;;;;;;-144.73;30.02;82348.20;110559;1269;22788;-66
2023/06/07 09:58:35;;;;;;;10.20;3.20;;;;;;;-144.73;30.05;82352.55;110573;1267;23122;-69
2023/06/07 10:01:37;;;;;;;8.10;2.70;;;;;;;-144.73;30.06;82361.23;110517;1269;22194;-67
2023/06/07 10:04:24;;;;;;;6.60;2.80;;;;;;;-144.73;29.95;82378.23;110521;1269;22389;-70
2023/06/07 10:07:12;;;;;;;8.80;3.30;;;;;;;-144.73;30.06;82388.11;110510;1267;22191;-74
2023/06/07 10:10:00;;;;;;;10.40;2.70;;;;;;;-144.73;29.99;82384.94;110513;1273;22437;-67
2023/06/07 10:12:48;;;;;;;7.00;3.30;;;;;;;-144.73;29.88;82380.98;110572;1270;22203;-69
2023/06/07 10:15:35;;;;;;;7.10;2.50;;;;;;;-144.73;29.72;82351.76;110551;1269;22219;-72
2023/06/07 10:18:26;;;;;;;7.30;2.60;;;;;;;-144.73;29.68;82342.27;110540;1269;22319;-64
2023/06/07 10:21:18;;;;;;;10.60;3.70;;;;;;;-144.73;29.65;82330.82;110530;1257;22314;-65
2023/06/07 10:24:16;;;;;;;8.30;3.20;;;;;;;-144.73;29.63;82327.66;110527;1263;22364;-68
2023/06/07 10:27:17;;;;;;;7.70;2.90;;;;;;;-144.73;29.49;82340.70;110521;1269;22307;-65
2023/06/07 10:30:10;;;;;;;8.30;2.80;;;;;;;-144.73;29.42;82353.73;110541;1270;22894;-64
2023/06/07 10:32:58;;;;;;;18.20;3.10;;;;;;;-144.73;29.68;82363.21;110537;1260;22320;-66
2023/06/07 10:35:45;;;;;;;8.00;2.80;;;;;;;-144.73;29.82;82371.52;110585;1266;22320;-64
2023/06/07 10:38:33;;;;;;;13.10;5.40;;;;;;;-144.73;29.65;82341.09;110510;1269;22141;-68
2023/06/07 10:41:19;;;;;;;12.00;3.50;;;;;;;-144.73;29.92;82377.83;110527;1263;22172;-64
2023/06/07 10:44:05;;;;;;;8.30;3.20;;;;;;;-144.73;29.94;82369.94;110551;1265;22320;-65
2023/06/07 10:47:22;;;;;;;6.40;3.50;;;;;;;-144.73;30.41;82397.59;110518;1258;22352;-67
2023/06/07 10:50:30;;;;;;;6.00;3.20;;;;;;;-144.73;30.65;82451.32;110513;1260;22172;-69
2023/06/07 10:53:16;;;;;;;8.60;3.00;;;;;;;-144.73;30.82;82484.52;110559;1269;22154;-60
2023/06/07 10:56:26;;;;;;;9.40;3.50;;;;;;;-144.73;31.13;82563.13;110568;1255;22311;-64
2023/06/07 10:59:15;;;;;;;8.90;2.80;;;;;;;-144.73;31.25;82627.14;110515;1273;22956;-64
2023/06/07 11:02:24;;;;;;;6.40;2.80;;;;;;;-144.73;31.35;82659.14;110526;1273;22175;-66
2023/06/07 11:05:11;;;;;;;5.80;2.70;;;;;;;-144.73;31.25;82649.65;110501;1267;22206;-73
2023/06/07 11:08:21;;;;;;;8.70;3.00;;;;;;;-144.73;31.22;82641.36;110492;1267;22069;-66
2023/06/07 11:11:38;;;;;;;6.90;3.20;;;;;;;-144.73;31.25;82614.88;110600;1259;22187;-67
2023/06/07 11:14:24;;;;;;;8.40;3.20;;;;;;;-144.73;31.59;82638.20;110584;1273;22307;-70
2023/06/07 11:17:49;;;;;;;10.40;3.70;;;;;;;-144.73;31.80;82660.72;110535;1273;22211;-63
2023/06/07 11:20:36;;;;;;;17.40;3.80;;;;;;;-144.73;31.71;82682.45;110690;1273;22206;-63
2023/06/07 11:23:30;;;;;;;7.70;3.50;;;;;;;-144.73;32.06;82701.41;110562;1264;22321;-70
2023/06/07 11:26:17;;;;;;;7.20;3.00;;;;;;;-144.73;31.91;82706.55;110526;1269;22337;-68
2023/06/07 11:29:05;;;;;;;7.50;3.30;;;;;;;-144.73;32.33;82730.65;110591;1260;22357;-70
2023/06/07 11:31:59;;;;;;;9.10;3.30;;;;;;;-144.73;32.48;82718.02;110516;1256;22187;-66
2023/06/07 11:34:56;;;;;;;8.90;3.10;;;;;;;-144.73;32.38;82699.83;110548;1260;22098;-64
2023/06/07 11:37:43;;;;;;;6.80;3.30;;;;;;;-144.73;32.53;82678.11;110551;1260;22988;-67
2023/06/07 11:40:29;;;;;;;10.60;3.90;;;;;;;-144.73;32.81;82672.97;110558;1256;23186;-73
2023/06/07 11:43:20;;;;;;;7.80;3.90;;;;;;;-144.73;33.26;82701.81;110552;1256;22160;-65
2023/06/07 11:46:06;;;;;;;7.00;3.60;;;;;;;-144.73;33.43;82744.09;110499;1267;22172;-65
2023/06/07 11:48:53;;;;;;;11.90;4.20;;;;;;;-144.73;33.58;82783.60;110551;1266;22319;-64
2023/06/07 11:51:39;;;;;;;9.00;3.70;;;;;;;-144.73;33.35;82825.09;110516;1267;22332;-65
2023/06/07 11:54:25;;;;;;;10.40;3.70;;;;;;;-144.73;33.58;82890.27;110516;1260;22414;-65
2023/06/07 11:57:12;;;;;;;8.00;3.70;;;;;;;-144.73;33.80;82939.67;110574;1264;22325;-65
2023/06/07 11:59:58;;;;;;;11.80;3.40;;;;;;;-144.73;33.90;82957.84;110537;1267;22385;-68
2023/06/07 12:02:45;;;;;;;6.40;3.10;;;;;;;-144.73;33.78;82995.00;110530;1269;22324;-67
2023/06/07 12:05:34;;;;;;;6.30;3.20;;;;;;;-144.73;34.08;83014.35;110540;1260;22293;-69
2023/06/07 12:08:20;;;;;;;7.70;3.40;;;;;;;-144.73;33.77;83031.35;110568;1266;22193;-63
2023/06/07 12:11:06;;;;;;;9.50;3.30;;;;;;;-144.73;33.99;83048.34;110510;1266;22349;-62
2023/06/07 12:13:53;;;;;;;7.50;3.80;;;;;;;-144.73;34.28;83043.98;110550;1266;22856;-65
2023/06/07 12:16:40;;;;;;;6.60;3.80;;;;;;;-144.73;34.06;83057.42;110511;1272;22168;-66
2023/06/07 12:19:26;;;;;;;9.50;3.20;;;;;;;-144.73;34.41;83102.86;110540;1259;22338;-64
2023/06/07 12:22:11;;;;;;;8.70;3.80;;;;;;;-144.73;34.65;83124.60;110511;1269;23065;-65
2023/06/07 12:25:19;;;;;;;23.90;4.20;;;;;;;-144.73;35.08;83141.98;110521;1267;22324;-65
2023/06/07 12:28:06;;;;;;;11.10;4.10;;;;;;;-144.73;35.37;83186.24;110506;1267;22230;-65
2023/06/07 12:30:52;;;;;;;9.60;4.10;;;;;;;-144.73;35.73;83215.09;110536;1266;22345;-65
2023/06/07 12:33:39;;;;;;;12.30;4.00;;;;;;;-144.73;35.77;83253.02;110581;1266;22325;-64
2023/06/07 12:36:30;;;;;;;9.20;4.20;;;;;;;-144.73;35.94;83270.81;110540;1267;22179;-63
2023/06/07 12:39:21;;;;;;;9.30;3.50;;;;;;;-144.73;35.92;83286.22;110543;1273;22456;-66
2023/06/07 12:42:07;;;;;;;7.30;3.50;;;;;;;-144.73;35.92;83287.80;110533;1272;22158;-67
2023/06/07 12:44:54;;;;;;;14.40;4.00;;;;;;;-144.73;36.13;83307.16;110533;1270;22155;-66